Terminal Aerodrome Forecast
Issued by NWS

Current Version | Previous Version | Text Only | Print | Product List | Glossary Off
Versions: 1 2 3 4 5 6 7 8 9 10 11 12 13 14 15 16

094
FTUS41 KILN 232349
TAFLCK
TAF
KLCK 232349Z 2400/2424 11006KT P6SM BKN120
     FM241000 11005KT P6SM BKN015
     FM241700 11008KT 4SM SHRA OVC025
     FM242300 08008KT 6SM -SHRA OVC025=

USA.gov is the U.S. government's official web portal to all federal, state and local government web resources and services.